Time;durP1;ratioP1;P1;durP2;ratioP2;P2;SDS_P1;SDS_P2;PMS_P1;PMS_P2;Temp;Humidity;BMP_temperature;BMP_pressure;BME280_temperature;BME280_humidity;BME280_pressure;Samples;Min_cycle;Max_cycle;Signal;HPM_P1;HPM_P2
2022/01/06 00:01:19;;;;;;;69.37;39.13;;;;;;;5.76;90.92;98815.38;5092789;28;20720;-66
2022/01/06 00:03:46;;;;;;;65.97;38.77;;;;;;;5.85;90.48;98817.94;5093173;28;20192;-67
2022/01/06 00:06:13;;;;;;;61.23;38.20;;;;;;;5.87;89.21;98827.31;5092553;28;20231;-67
2022/01/06 00:08:40;;;;;;;63.07;38.00;;;;;;;5.87;90.54;98842.31;5092887;28;20638;-66
2022/01/06 00:11:10;;;;;;;62.57;38.73;;;;;;;5.86;90.35;98838.03;5093140;28;20196;-66
2022/01/06 00:13:48;;;;;;;66.73;37.63;;;;;;;5.92;90.77;98847.84;5093587;28;20198;-67
2022/01/06 00:16:25;;;;;;;64.20;38.50;;;;;;;5.89;90.87;98854.31;5092674;28;20654;-66
2022/01/06 00:24:29;;;;;;;58.00;35.57;;;;;;;5.90;90.85;98855.09;5035627;28;20681;-66
2022/01/06 00:26:57;;;;;;;66.87;36.40;;;;;;;5.90;89.81;98858.56;5092396;28;20643;-66
2022/01/06 00:29:25;;;;;;;61.23;36.20;;;;;;;5.97;89.95;98866.56;5092387;28;20709;-66
2022/01/06 00:31:52;;;;;;;62.17;34.83;;;;;;;5.84;89.14;98867.19;5092511;28;20194;-66
2022/01/06 00:34:18;;;;;;;63.83;35.93;;;;;;;5.79;90.53;98862.44;5092506;28;20622;-66
2022/01/06 00:36:45;;;;;;;54.93;35.80;;;;;;;5.81;90.25;98858.84;5092986;28;20192;-67
2022/01/06 00:39:12;;;;;;;55.83;36.73;;;;;;;5.79;89.91;98857.19;5092690;28;20640;-66
2022/01/06 00:41:39;;;;;;;61.97;36.37;;;;;;;5.82;90.93;98842.03;5092632;28;20231;-67
2022/01/06 00:44:08;;;;;;;63.00;35.47;;;;;;;5.74;90.26;98854.28;5092062;28;20197;-67
2022/01/06 00:46:36;;;;;;;65.63;37.77;;;;;;;5.74;90.46;98833.19;5092557;28;20248;-67
2022/01/06 00:49:04;;;;;;;57.60;34.97;;;;;;;5.70;90.44;98837.19;5092085;28;20694;-67
2022/01/06 00:51:31;;;;;;;58.17;36.57;;;;;;;5.68;90.39;98843.66;5092983;28;20252;-67
2022/01/06 00:53:57;;;;;;;58.37;35.87;;;;;;;5.59;90.07;98842.91;5093013;28;20624;-67
2022/01/06 00:56:24;;;;;;;56.57;35.57;;;;;;;5.55;90.32;98835.53;5092437;28;20253;-67
2022/01/06 00:58:51;;;;;;;55.50;35.67;;;;;;;5.60;90.49;98833.19;5091991;28;20235;-67
2022/01/06 01:01:19;;;;;;;53.57;34.77;;;;;;;5.62;89.43;98831.19;5092458;28;20252;-67
2022/01/06 01:03:46;;;;;;;61.93;37.07;;;;;;;5.62;90.19;98818.00;5091873;28;20192;-67
2022/01/06 01:06:12;;;;;;;63.93;35.23;;;;;;;5.67;89.77;98811.19;5092061;28;20654;-67
2022/01/06 01:08:39;;;;;;;60.03;35.60;;;;;;;5.66;88.60;98814.00;5105374;28;20219;-67
2022/01/06 01:11:07;;;;;;;60.03;35.83;;;;;;;5.69;89.60;98821.56;5112303;28;20212;-67
2022/01/06 01:13:53;;;;;;;61.37;35.90;;;;;;;5.72;88.62;98818.56;5112646;28;20195;-66
2022/01/06 01:16:26;;;;;;;58.93;35.43;;;;;;;5.75;88.21;98823.47;5112950;28;20190;-66
2022/01/06 01:18:53;;;;;;;56.90;34.30;;;;;;;5.59;87.71;98799.94;5112279;28;20195;-66
2022/01/06 01:21:22;;;;;;;58.90;35.80;;;;;;;5.67;88.59;98819.09;5112221;28;20199;-66
2022/01/06 01:23:49;;;;;;;57.67;35.17;;;;;;;5.69;87.61;98819.72;5112174;28;20197;-67
2022/01/06 01:26:15;;;;;;;62.63;36.00;;;;;;;5.73;87.78;98810.47;5112798;28;20196;-67
2022/01/06 01:28:46;;;;;;;50.50;34.83;;;;;;;5.76;87.71;98814.56;5112560;28;20287;-66
2022/01/06 01:31:24;;;;;;;57.67;34.70;;;;;;;5.77;87.37;98808.31;5113976;28;20566;-66
2022/01/06 01:33:57;;;;;;;54.77;33.30;;;;;;;5.75;87.33;98803.22;5116930;28;20665;-67
2022/01/06 01:36:24;;;;;;;54.77;33.53;;;;;;;5.74;87.84;98814.75;5116421;27;20188;-67
2022/01/06 01:38:50;;;;;;;60.53;33.97;;;;;;;5.70;87.52;98805.59;5116427;28;20198;-67
2022/01/06 01:41:17;;;;;;;59.97;35.27;;;;;;;5.70;88.36;98805.59;5116532;28;20224;-67
2022/01/06 01:43:46;;;;;;;57.80;34.57;;;;;;;5.69;88.12;98803.13;5116255;28;20199;-68
2022/01/06 01:46:15;;;;;;;59.43;35.83;;;;;;;5.70;87.51;98805.59;5115860;28;20669;-67
2022/01/06 01:48:48;;;;;;;58.10;33.83;;;;;;;5.62;88.01;98807.47;5116140;28;20223;-67
2022/01/06 01:51:16;;;;;;;62.43;34.13;;;;;;;5.53;88.55;98808.56;5116079;28;20273;-66
2022/01/06 01:53:43;;;;;;;59.43;35.83;;;;;;;5.39;88.65;98797.00;5115952;28;20322;-67
2022/01/06 01:56:12;;;;;;;57.83;34.17;;;;;;;5.33;89.72;98803.00;5115958;28;20256;-66
2022/01/06 01:58:40;;;;;;;60.17;35.30;;;;;;;5.19;89.81;98798.53;5116311;28;20274;-66
2022/01/06 02:01:07;;;;;;;56.33;32.00;;;;;;;5.17;89.81;98804.97;5115844;28;20282;-66
2022/01/06 02:03:33;;;;;;;54.33;35.73;;;;;;;5.12;89.55;98810.78;5115976;28;20197;-66
2022/01/06 02:06:00;;;;;;;57.90;35.90;;;;;;;5.01;89.59;98805.94;5115771;28;20248;-67
2022/01/06 02:08:28;;;;;;;57.67;34.77;;;;;;;5.05;89.49;98806.38;5115572;28;20274;-67
2022/01/06 02:10:55;;;;;;;62.83;37.70;;;;;;;4.90;90.02;98805.56;5115536;28;20194;-67
2022/01/06 02:13:27;;;;;;;66.97;37.17;;;;;;;4.91;90.25;98813.25;5115849;28;20191;-67
2022/01/06 02:15:54;;;;;;;56.93;35.63;;;;;;;4.91;89.55;98805.34;5115718;28;20256;-66
2022/01/06 02:18:21;;;;;;;56.97;35.67;;;;;;;4.94;89.76;98815.53;5115589;28;20191;-66
2022/01/06 02:20:49;;;;;;;59.63;37.13;;;;;;;4.92;89.01;98807.00;5116027;28;20195;-66
2022/01/06 02:23:17;;;;;;;56.00;37.50;;;;;;;4.95;89.82;98819.00;5115580;28;20195;-66
2022/01/06 02:25:45;;;;;;;68.30;38.43;;;;;;;4.89;89.70;98807.34;5115121;28;20207;-67
2022/01/06 02:28:11;;;;;;;72.00;39.03;;;;;;;4.93;89.52;98811.28;5115145;28;20256;-67
2022/01/06 02:30:38;;;;;;;65.07;40.20;;;;;;;4.85;89.66;98823.66;5115515;28;20218;-66
2022/01/06 02:33:06;;;;;;;84.13;44.20;;;;;;;4.89;91.30;98820.50;5115971;28;20251;-66
2022/01/06 02:35:33;;;;;;;72.17;41.80;;;;;;;4.91;90.90;98815.88;5115065;28;20673;-67
2022/01/06 02:38:01;;;;;;;62.70;39.60;;;;;;;4.85;90.58;98827.13;5115001;28;20653;-67
2022/01/06 02:40:28;;;;;;;79.23;43.83;;;;;;;4.85;90.91;98819.22;5115837;28;20218;-67
2022/01/06 02:42:57;;;;;;;70.30;41.23;;;;;;;4.92;89.99;98814.91;5113911;28;20654;-67
2022/01/06 02:45:27;;;;;;;64.17;40.27;;;;;;;5.00;89.91;98816.63;5115306;28;20286;-66
2022/01/06 02:47:54;;;;;;;62.87;39.20;;;;;;;5.04;89.09;98812.66;5115020;28;20281;-67
2022/01/06 02:50:22;;;;;;;66.70;37.33;;;;;;;5.08;89.00;98809.50;5114624;27;20218;-67
2022/01/06 02:52:49;;;;;;;64.57;37.83;;;;;;;5.12;89.14;98800.25;5115412;28;20190;-67
2022/01/06 02:55:17;;;;;;;62.03;37.93;;;;;;;5.16;88.82;98796.25;5114630;28;20627;-67
2022/01/06 02:57:45;;;;;;;61.57;36.17;;;;;;;5.17;88.54;98797.91;5114954;28;20251;-67
2022/01/06 03:00:15;;;;;;;58.57;37.60;;;;;;;5.17;88.46;98797.06;5114909;28;20194;-66
2022/01/06 03:02:43;;;;;;;57.87;34.60;;;;;;;5.06;88.73;98777.28;5115333;28;20190;-67
2022/01/06 03:05:10;;;;;;;56.33;34.77;;;;;;;5.11;89.11;98798.59;5114319;28;20658;-67
2022/01/06 03:07:37;;;;;;;52.90;32.80;;;;;;;5.15;89.52;98810.41;5114674;28;20195;-67
2022/01/06 03:10:06;;;;;;;60.07;35.47;;;;;;;5.02;89.31;98815.47;5114522;27;20218;-66
2022/01/06 03:12:39;;;;;;;58.03;34.70;;;;;;;5.00;90.34;98816.63;5114682;28;20277;-67
2022/01/06 03:15:07;;;;;;;59.63;35.10;;;;;;;4.90;91.13;98803.72;5114601;28;20685;-67
2022/01/06 03:17:34;;;;;;;55.70;35.67;;;;;;;4.94;91.22;98809.44;5114154;28;20200;-67
2022/01/06 03:20:01;;;;;;;60.57;35.80;;;;;;;4.97;90.93;98820.44;5114535;28;20440;-67
2022/01/06 03:22:28;;;;;;;57.40;38.00;;;;;;;4.75;90.75;98818.63;5114063;28;20251;-67
2022/01/06 03:24:54;;;;;;;67.10;43.17;;;;;;;4.68;91.45;98817.72;5114063;28;20191;-67
2022/01/06 03:27:21;;;;;;;65.60;40.17;;;;;;;4.69;91.29;98824.59;5114149;28;20190;-66
2022/01/06 03:29:50;;;;;;;60.90;39.63;;;;;;;4.53;91.68;98832.59;5113859;28;20222;-67
2022/01/06 03:32:17;;;;;;;66.03;40.43;;;;;;;4.46;92.56;98850.03;5114286;28;20197;-67
2022/01/06 03:34:45;;;;;;;60.40;41.07;;;;;;;4.30;91.86;98839.63;5114238;28;20190;-67
2022/01/06 03:37:12;;;;;;;66.73;39.57;;;;;;;4.27;93.87;98850.50;5113884;28;20195;-68
2022/01/06 03:39:38;;;;;;;61.67;37.83;;;;;;;4.11;94.05;98844.50;5113540;28;20239;-67
2022/01/06 03:42:06;;;;;;;64.30;38.47;;;;;;;4.07;94.94;98838.78;5114028;28;20218;-68
2022/01/06 03:44:32;;;;;;;62.27;38.17;;;;;;;4.10;94.70;98843.69;5114558;28;20190;-67
2022/01/06 03:47:01;;;;;;;55.70;38.13;;;;;;;3.99;95.70;98830.91;5113944;28;20190;-67
2022/01/06 03:49:28;;;;;;;57.70;38.77;;;;;;;4.11;95.90;98849.75;5114127;28;20218;-67
2022/01/06 03:51:55;;;;;;;65.17;40.90;;;;;;;4.04;95.18;98854.88;5114223;28;20509;-67
2022/01/06 03:54:22;;;;;;;69.07;39.23;;;;;;;4.06;95.75;98846.81;5113599;28;20255;-67
2022/01/06 03:56:49;;;;;;;66.40;42.37;;;;;;;3.96;95.49;98857.53;5113359;28;20198;-68
2022/01/06 03:59:16;;;;;;;62.10;39.60;;;;;;;3.90;95.97;98847.72;5114250;28;20606;-67
2022/01/06 04:01:42;;;;;;;65.20;42.83;;;;;;;3.91;97.14;98843.25;5113422;28;20186;-67
2022/01/06 04:04:11;;;;;;;73.93;41.23;;;;;;;3.99;96.01;98851.94;5113308;28;20830;-68
2022/01/06 04:06:38;;;;;;;70.97;41.10;;;;;;;3.92;95.48;98845.72;5113070;28;20669;-67
2022/01/06 04:09:04;;;;;;;75.07;40.50;;;;;;;4.01;96.58;98855.19;5113514;28;20436;-67
2022/01/06 04:11:31;;;;;;;64.93;39.03;;;;;;;4.03;96.04;98842.72;5113095;28;20248;-67
2022/01/06 04:13:58;;;;;;;65.07;39.90;;;;;;;4.21;95.04;98850.38;5113078;28;20821;-67
2022/01/06 04:16:27;;;;;;;58.20;37.40;;;;;;;4.05;94.30;98859.13;5113277;28;20490;-66
2022/01/06 04:18:54;;;;;;;61.10;38.53;;;;;;;4.05;94.59;98853.88;5113061;28;20657;-66
2022/01/06 04:21:22;;;;;;;55.70;35.43;;;;;;;3.97;95.21;98864.41;5113618;28;20258;-66
2022/01/06 04:23:48;;;;;;;56.07;35.03;;;;;;;3.96;96.11;98854.91;5113244;28;20479;-66
2022/01/06 04:26:15;;;;;;;51.97;33.63;;;;;;;3.99;96.67;98864.25;5113230;28;20195;-66
2022/01/06 04:28:42;;;;;;;51.57;32.60;;;;;;;4.04;96.10;98865.38;5112938;28;20318;-66
2022/01/06 04:31:09;;;;;;;46.80;31.17;;;;;;;4.06;97.35;98867.84;5112686;28;20642;-67
2022/01/06 04:33:36;;;;;;;45.83;32.03;;;;;;;4.14;96.60;98875.69;5113081;28;20190;-67
2022/01/06 04:36:05;;;;;;;58.77;32.47;;;;;;;4.04;96.77;98859.31;5112536;28;20675;-67
2022/01/06 04:38:33;;;;;;;59.80;36.73;;;;;;;4.10;96.75;98880.47;5113338;28;20623;-67
2022/01/06 04:41:00;;;;;;;50.90;34.13;;;;;;;3.95;96.06;98865.56;5112999;28;20585;-67
2022/01/06 04:43:27;;;;;;;59.30;32.90;;;;;;;4.07;97.23;98869.47;5112624;28;20464;-67
2022/01/06 04:45:54;;;;;;;47.23;31.97;;;;;;;4.09;96.88;98868.31;5112910;28;20252;-67
2022/01/06 04:48:20;;;;;;;51.70;34.70;;;;;;;4.22;96.84;98867.78;5112379;27;20194;-67
2022/01/06 04:50:47;;;;;;;57.17;36.03;;;;;;;4.27;95.93;98873.31;5112353;28;20397;-67
2022/01/06 04:53:14;;;;;;;54.90;34.03;;;;;;;4.21;94.71;98866.94;5113009;28;20258;-67
2022/01/06 04:55:42;;;;;;;54.17;36.33;;;;;;;4.26;95.32;98859.38;5112222;28;20190;-66
2022/01/06 04:58:08;;;;;;;52.27;32.93;;;;;;;4.23;95.35;98851.00;5112575;28;20187;-67
2022/01/06 05:00:35;;;;;;;48.13;31.30;;;;;;;4.16;94.69;98861.38;5112884;28;20210;-65
2022/01/06 05:03:02;;;;;;;51.57;31.23;;;;;;;3.88;95.30;98856.75;5112971;28;20251;-65
2022/01/06 05:05:29;;;;;;;51.47;33.30;;;;;;;3.92;96.42;98865.94;5112088;28;20191;-67
2022/01/06 05:07:55;;;;;;;52.83;32.20;;;;;;;3.99;96.18;98870.31;5112120;28;20190;-65
2022/01/06 05:10:22;;;;;;;55.87;32.63;;;;;;;4.06;95.67;98873.91;5112627;28;20573;-65
2022/01/06 05:12:50;;;;;;;47.27;31.20;;;;;;;4.05;95.47;98874.88;5112203;28;20251;-65
2022/01/06 05:15:17;;;;;;;54.60;33.27;;;;;;;4.12;95.24;98883.72;5112411;28;20650;-65
2022/01/06 05:17:44;;;;;;;53.87;31.70;;;;;;;4.10;94.69;98883.09;5112013;28;20723;-66
2022/01/06 05:20:12;;;;;;;60.30;35.40;;;;;;;4.14;94.86;98891.47;5112211;28;20190;-66
2022/01/06 05:22:44;;;;;;;49.33;32.60;;;;;;;4.08;94.53;98882.44;5112133;28;20194;-66
2022/01/06 05:25:12;;;;;;;55.73;30.87;;;;;;;4.14;94.51;98892.28;5112597;28;20660;-66
2022/01/06 05:27:39;;;;;;;45.27;28.33;;;;;;;4.17;94.50;98891.91;5112078;28;20654;-65
2022/01/06 05:30:08;;;;;;;41.83;27.80;;;;;;;4.22;93.80;98894.88;5111808;28;20218;-65
2022/01/06 05:32:35;;;;;;;37.80;27.53;;;;;;;4.22;94.04;98912.44;5111719;28;20190;-65
2022/01/06 05:35:02;;;;;;;37.73;27.77;;;;;;;4.13;93.32;98908.22;5111720;28;20191;-64
2022/01/06 05:37:29;;;;;;;39.27;27.23;;;;;;;4.18;94.27;98908.53;5112040;28;20681;-63
2022/01/06 05:39:55;;;;;;;41.73;25.67;;;;;;;4.21;94.20;98902.94;5111811;28;20468;-64
2022/01/06 05:42:22;;;;;;;40.13;25.00;;;;;;;4.22;94.49;98899.31;5111774;28;20187;-63
2022/01/06 05:44:49;;;;;;;36.97;24.23;;;;;;;4.14;93.60;98905.44;5111681;28;20617;-64
2022/01/06 05:47:17;;;;;;;30.57;22.50;;;;;;;4.09;94.85;98899.84;5111811;28;20194;-65
2022/01/06 05:49:44;;;;;;;33.20;23.53;;;;;;;4.22;94.19;98909.81;5111195;28;20195;-65
2022/01/06 05:52:11;;;;;;;37.07;23.60;;;;;;;4.19;94.44;98916.25;5111435;28;20653;-67
2022/01/06 05:54:38;;;;;;;43.00;25.87;;;;;;;4.20;94.23;98911.78;5111269;28;20194;-66
2022/01/06 05:57:05;;;;;;;51.10;32.10;;;;;;;4.03;95.04;98916.28;5110180;28;20198;-66
2022/01/06 05:59:32;;;;;;;67.53;33.00;;;;;;;4.18;95.05;98913.78;5111973;28;20244;-66
2022/01/06 06:01:59;;;;;;;54.47;32.90;;;;;;;4.23;95.44;98917.53;5111945;28;20436;-66
2022/01/06 06:04:28;;;;;;;44.97;29.47;;;;;;;4.13;95.22;98910.84;5109871;28;20669;-68
2022/01/06 06:06:55;;;;;;;56.97;34.83;;;;;;;4.03;95.51;98915.47;5110244;28;20222;-68
2022/01/06 06:09:21;;;;;;;64.67;38.60;;;;;;;4.02;95.94;98913.81;5091200;28;20195;-67
2022/01/06 06:11:48;;;;;;;69.23;38.70;;;;;;;4.02;96.22;98919.91;5091337;28;20759;-68
2022/01/06 06:14:15;;;;;;;60.37;34.53;;;;;;;4.13;96.52;98914.28;5092085;28;20268;-67
2022/01/06 06:16:42;;;;;;;50.67;29.63;;;;;;;4.22;95.76;98915.06;5091332;28;20674;-68
2022/01/06 06:19:09;;;;;;;55.13;27.73;;;;;;;4.31;95.81;98920.13;5095445;28;20201;-70
2022/01/06 06:21:37;;;;;;;35.03;25.20;;;;;;;4.38;95.69;98926.34;5094877;28;20284;-69
2022/01/06 06:24:05;;;;;;;35.63;24.37;;;;;;;4.48;95.13;98923.50;5094903;28;20217;-68
2022/01/06 06:26:32;;;;;;;39.73;25.33;;;;;;;4.52;94.99;98927.44;5094745;28;20194;-69
2022/01/06 06:28:59;;;;;;;47.53;26.07;;;;;;;4.62;95.43;98918.34;5094956;28;20589;-69
2022/01/06 06:31:25;;;;;;;39.17;24.77;;;;;;;4.77;93.74;98911.34;5094213;28;20219;-70
2022/01/06 06:33:52;;;;;;;52.40;24.47;;;;;;;4.88;92.28;98926.75;5102210;28;20240;-68
2022/01/06 06:36:19;;;;;;;41.77;24.80;;;;;;;4.88;91.95;98923.28;5109756;28;20240;-68
2022/01/06 06:38:47;;;;;;;41.23;27.33;;;;;;;4.86;91.71;98920.81;5094588;28;20276;-69
2022/01/06 06:41:13;;;;;;;44.77;27.20;;;;;;;4.92;91.46;98911.44;5105687;28;20307;-70
2022/01/06 06:43:40;;;;;;;47.27;25.50;;;;;;;4.87;91.50;98925.09;5114742;28;20247;-69
2022/01/06 06:46:07;;;;;;;36.77;26.83;;;;;;;4.94;91.99;98923.41;5114803;28;20653;-66
2022/01/06 06:48:34;;;;;;;40.73;27.73;;;;;;;5.07;91.88;98923.66;5113956;28;20263;-69
2022/01/06 06:51:02;;;;;;;37.83;25.60;;;;;;;5.21;91.64;98920.28;5094494;28;20219;-70
2022/01/06 06:53:28;;;;;;;38.53;23.67;;;;;;;5.44;91.44;98930.78;5094423;28;20198;-68
2022/01/06 06:55:57;;;;;;;39.33;25.37;;;;;;;5.62;90.28;98920.75;5094079;28;20248;-69
2022/01/06 06:58:24;;;;;;;46.17;28.97;;;;;;;5.75;89.05;98929.69;5094144;28;20248;-69
2022/01/06 07:00:50;;;;;;;45.93;27.53;;;;;;;5.86;87.99;98931.09;5106184;28;20240;-70
2022/01/06 07:03:17;;;;;;;82.13;29.97;;;;;;;5.94;88.51;98940.72;5113636;28;20666;-70
2022/01/06 07:05:44;;;;;;;62.60;34.03;;;;;;;6.04;87.37;98943.94;5113547;28;20840;-70
2022/01/06 07:08:10;;;;;;;68.17;38.20;;;;;;;6.18;87.47;98940.47;5113564;28;20205;-70
2022/01/06 07:10:37;;;;;;;64.70;36.37;;;;;;;6.27;86.43;98955.19;5112955;28;20279;-71
2022/01/06 07:13:05;;;;;;;40.23;27.00;;;;;;;6.13;85.93;98956.03;5113726;28;20252;-70
2022/01/06 07:15:33;;;;;;;38.40;25.63;;;;;;;6.16;86.75;98958.31;5113353;28;20574;-70
2022/01/06 07:18:00;;;;;;;43.37;23.43;;;;;;;6.23;86.53;98957.38;5113958;28;20192;-69
2022/01/06 07:20:26;;;;;;;33.37;20.87;;;;;;;6.32;85.46;98966.03;5114454;28;20256;-70
2022/01/06 07:22:53;;;;;;;36.83;23.13;;;;;;;6.18;85.38;98972.09;5114372;28;20195;-69
2022/01/06 07:25:21;;;;;;;38.80;26.40;;;;;;;6.12;84.75;98964.94;5114024;28;20616;-68
2022/01/06 07:27:48;;;;;;;65.43;32.73;;;;;;;6.15;85.40;98969.81;5114133;28;20247;-67
2022/01/06 07:30:16;;;;;;;39.47;24.87;;;;;;;6.07;85.25;98976.00;5113963;28;20187;-69
2022/01/06 07:32:44;;;;;;;52.00;28.60;;;;;;;6.10;85.66;98972.19;5113717;28;20190;-69
2022/01/06 07:35:11;;;;;;;46.13;30.93;;;;;;;6.07;85.31;98975.19;5114083;28;20247;-69
2022/01/06 07:37:38;;;;;;;51.57;31.33;;;;;;;6.03;85.64;98971.25;5114491;28;20265;-69
2022/01/06 07:40:06;;;;;;;43.57;27.83;;;;;;;5.90;85.92;98978.97;5113937;28;20211;-69
2022/01/06 07:42:33;;;;;;;53.43;33.93;;;;;;;5.74;86.35;98979.91;5114100;28;20186;-69
2022/01/06 07:45:00;;;;;;;70.70;33.23;;;;;;;5.75;86.97;98976.28;5114440;28;20248;-69
2022/01/06 07:47:31;;;;;;;51.50;32.30;;;;;;;5.92;86.85;98977.00;5113122;28;20198;-70
2022/01/06 07:49:57;;;;;;;54.40;30.50;;;;;;;5.92;86.93;98982.25;5113259;28;20182;-70
2022/01/06 07:52:24;;;;;;;54.03;31.00;;;;;;;6.07;86.87;98980.44;5092800;28;20292;-71
2022/01/06 07:54:51;;;;;;;65.07;33.43;;;;;;;6.31;87.06;98982.84;5101823;28;20244;-71
2022/01/06 07:57:18;;;;;;;71.53;35.57;;;;;;;6.64;86.05;98974.38;5094679;28;20602;-70
2022/01/06 07:59:44;;;;;;;76.83;45.17;;;;;;;6.88;84.38;98978.53;5092814;28;20225;-70
2022/01/06 08:02:12;;;;;;;48.17;27.90;;;;;;;6.95;83.36;98982.06;5111326;28;20198;-69
2022/01/06 08:04:40;;;;;;;55.27;30.80;;;;;;;6.95;83.04;98979.44;5113403;28;20322;-69
2022/01/06 08:07:07;;;;;;;59.03;32.57;;;;;;;6.88;83.37;98976.72;5114056;28;20227;-70
2022/01/06 08:09:33;;;;;;;51.90;30.30;;;;;;;7.23;84.46;98980.34;5113265;28;20190;-69
2022/01/06 08:12:00;;;;;;;60.50;31.50;;;;;;;7.51;82.62;98983.91;5113341;28;20251;-70
2022/01/06 08:14:29;;;;;;;84.47;29.50;;;;;;;7.80;81.94;98975.81;5112776;28;20191;-70
2022/01/06 08:16:57;;;;;;;71.27;31.53;;;;;;;8.05;80.94;98988.41;5112635;28;20197;-69
2022/01/06 08:19:24;;;;;;;34.67;24.13;;;;;;;8.25;78.91;99002.63;5113167;28;20190;-70
2022/01/06 08:21:52;;;;;;;42.47;21.77;;;;;;;8.46;76.69;98996.47;5112864;28;20285;-70
2022/01/06 08:24:19;;;;;;;34.50;24.07;;;;;;;8.59;76.54;99000.03;5112981;28;20365;-69
2022/01/06 08:26:45;;;;;;;34.57;21.77;;;;;;;8.77;75.41;98999.47;5112712;28;20196;-70
2022/01/06 08:29:12;;;;;;;33.60;22.50;;;;;;;8.80;74.54;98996.44;5112860;28;20187;-69
2022/01/06 08:31:39;;;;;;;34.07;23.77;;;;;;;8.74;75.89;98999.91;5112516;28;20709;-69
2022/01/06 08:34:06;;;;;;;38.33;24.77;;;;;;;8.79;76.02;98992.16;5112739;28;20194;-70
2022/01/06 08:36:32;;;;;;;52.37;24.33;;;;;;;8.89;76.60;99000.56;5092239;28;20257;-69
2022/01/06 08:39:00;;;;;;;63.73;24.50;;;;;;;9.07;76.19;99003.50;5092869;28;20194;-68
2022/01/06 08:41:27;;;;;;;38.97;19.93;;;;;;;9.20;75.58;99001.69;5106305;28;20260;-68
2022/01/06 08:43:54;;;;;;;66.60;21.77;;;;;;;9.26;73.77;99021.28;5112360;28;20194;-69
2022/01/06 08:46:20;;;;;;;39.43;20.33;;;;;;;9.10;74.58;99011.03;5112466;28;20199;-69
2022/01/06 08:48:47;;;;;;;25.57;18.40;;;;;;;9.13;74.32;99015.94;5113083;28;20222;-69
2022/01/06 08:51:14;;;;;;;31.63;18.07;;;;;;;9.30;73.81;99022.50;5112757;28;20276;-69
2022/01/06 08:53:40;;;;;;;23.03;18.30;;;;;;;9.46;73.17;99016.84;5112992;28;20190;-69
2022/01/06 08:56:10;;;;;;;25.37;16.77;;;;;;;9.63;72.83;99018.94;5112673;28;20190;-69
2022/01/06 08:58:37;;;;;;;90.93;22.43;;;;;;;9.70;72.41;99022.44;5112522;28;20229;-69
2022/01/06 09:01:03;;;;;;;47.33;23.57;;;;;;;9.83;72.09;99025.09;5112442;28;20252;-71
2022/01/06 09:03:30;;;;;;;46.17;19.77;;;;;;;9.93;70.98;99030.00;5112647;28;20194;-70
2022/01/06 09:05:57;;;;;;;38.70;20.60;;;;;;;9.93;71.05;99022.03;5112556;28;20191;-69
2022/01/06 09:08:23;;;;;;;53.40;20.77;;;;;;;9.99;70.81;99027.34;5112173;28;20614;-70
2022/01/06 09:10:50;;;;;;;52.03;23.77;;;;;;;10.04;71.39;99021.41;5112293;28;20187;-69
2022/01/06 09:13:18;;;;;;;42.00;21.20;;;;;;;10.13;71.20;99036.97;5112346;28;20186;-70
2022/01/06 09:15:45;;;;;;;30.93;20.93;;;;;;;9.91;71.48;99032.03;5112274;28;20198;-70
2022/01/06 09:18:11;;;;;;;33.50;21.83;;;;;;;9.93;71.24;99024.69;5112077;28;20194;-70
2022/01/06 09:20:38;;;;;;;29.23;19.03;;;;;;;9.89;71.52;99028.78;5112329;28;20255;-71
2022/01/06 09:23:05;;;;;;;33.07;19.50;;;;;;;9.89;71.56;99028.78;5111966;28;20236;-69
2022/01/06 09:25:32;;;;;;;26.43;18.97;;;;;;;9.90;72.00;99025.09;5112025;28;20247;-70
2022/01/06 09:27:58;;;;;;;34.43;20.47;;;;;;;9.83;72.07;99021.59;5112335;28;20221;-69
2022/01/06 09:30:26;;;;;;;34.87;21.97;;;;;;;9.79;72.68;99012.41;5112167;28;20198;-69
2022/01/06 09:32:54;;;;;;;56.60;24.63;;;;;;;9.79;73.40;99002.63;5111883;28;20693;-69
2022/01/06 09:35:21;;;;;;;109.70;24.90;;;;;;;9.92;73.21;99015.09;5112065;28;20217;-68
2022/01/06 09:37:48;;;;;;;44.17;21.90;;;;;;;9.98;72.95;99006.31;5112140;28;20187;-67
2022/01/06 09:40:16;;;;;;;29.10;20.37;;;;;;;9.97;72.19;99004.69;5107510;28;20279;-68
2022/01/06 09:42:44;;;;;;;32.20;20.77;;;;;;;10.07;72.12;99000.66;5111899;28;20255;-66
2022/01/06 09:45:12;;;;;;;35.77;23.53;;;;;;;9.55;73.91;99000.56;5111790;28;20792;-68
2022/01/06 09:47:41;;;;;;;45.60;23.20;;;;;;;9.75;74.12;98985.50;5102950;28;20206;-68
2022/01/06 09:50:10;;;;;;;31.90;21.60;;;;;;;10.07;73.38;98990.03;5097291;28;20193;-68
2022/01/06 09:52:37;;;;;;;35.83;23.03;;;;;;;10.34;73.07;98985.50;5096344;28;20643;-66
2022/01/06 09:55:05;;;;;;;39.97;23.60;;;;;;;10.60;73.67;98977.47;5115895;28;20192;-69
2022/01/06 09:57:33;;;;;;;34.93;24.03;;;;;;;10.94;72.57;98987.78;5107647;28;20187;-67
2022/01/06 09:59:59;;;;;;;38.33;24.63;;;;;;;11.30;70.53;98988.03;5095516;28;20625;-67
2022/01/06 10:02:33;;;;;;;26.20;20.53;;;;;;;11.60;68.84;98985.59;5094878;28;20208;-68
2022/01/06 10:05:02;;;;;;;34.70;21.03;;;;;;;11.89;67.38;98993.00;5095127;28;20254;-67
2022/01/06 10:07:36;;;;;;;43.00;21.60;;;;;;;12.09;66.74;98994.47;5113676;28;20228;-67
2022/01/06 10:10:07;;;;;;;26.70;17.87;;;;;;;12.39;64.91;98990.09;5095403;28;20205;-66
2022/01/06 10:12:33;;;;;;;26.87;16.53;;;;;;;12.61;64.31;98993.97;5091033;28;20650;-67
2022/01/06 10:15:00;;;;;;;29.90;17.20;;;;;;;12.78;63.82;98999.53;5095407;28;20617;-65
2022/01/06 10:17:31;;;;;;;22.90;14.90;;;;;;;13.01;62.85;98991.69;5094876;28;20241;-64
2022/01/06 10:20:11;;;;;;;37.70;16.93;;;;;;;13.20;61.60;98999.47;5107609;28;20259;-65
2022/01/06 10:22:45;;;;;;;24.33;15.20;;;;;;;13.38;61.24;98986.09;5115407;28;20182;-66
2022/01/06 10:25:13;;;;;;;18.07;13.47;;;;;;;13.40;59.94;98989.34;5115157;28;20710;-65
2022/01/06 10:27:41;;;;;;;24.20;14.23;;;;;;;13.43;60.71;98988.91;5115152;28;20198;-66
2022/01/06 10:30:09;;;;;;;19.17;14.30;;;;;;;13.46;60.14;98991.13;5115027;28;20190;-66
2022/01/06 10:32:38;;;;;;;17.90;15.27;;;;;;;13.47;59.87;98995.41;5115598;28;20226;-64
2022/01/06 10:35:07;;;;;;;20.53;13.97;;;;;;;13.59;60.11;98993.59;5115508;28;20187;-65
2022/01/06 10:37:40;;;;;;;19.00;14.20;;;;;;;13.79;59.24;98993.28;5114978;28;20251;-64
2022/01/06 10:40:10;;;;;;;22.57;13.80;;;;;;;13.82;59.15;98993.66;5114885;28;20284;-64
2022/01/06 10:42:39;;;;;;;15.97;13.90;;;;;;;13.85;59.32;98993.19;5114856;28;20187;-65
2022/01/06 10:45:10;;;;;;;16.27;12.93;;;;;;;14.01;58.50;98992.53;5115090;28;20190;-65
2022/01/06 10:47:39;;;;;;;33.37;14.27;;;;;;;14.09;58.27;98989.53;5115006;28;20266;-65
2022/01/06 10:50:11;;;;;;;32.03;14.07;;;;;;;14.08;57.94;98987.91;5114697;28;20195;-65
2022/01/06 10:52:40;;;;;;;22.33;13.80;;;;;;;14.09;60.75;98984.19;5114391;28;20218;-66
2022/01/06 10:55:12;;;;;;;27.33;17.07;;;;;;;14.18;59.07;98984.66;5114279;28;20191;-65
2022/01/06 10:57:50;;;;;;;25.67;18.60;;;;;;;14.22;58.27;98988.53;5103167;28;20263;-65
2022/01/06 11:00:18;;;;;;;20.97;13.87;;;;;;;14.13;60.01;98980.00;5094216;28;20189;-65
2022/01/06 11:02:45;;;;;;;24.87;13.60;;;;;;;14.28;62.89;98972.38;5113236;28;20260;-65
2022/01/06 11:05:11;;;;;;;66.30;16.93;;;;;;;14.07;58.00;98975.59;5113703;28;20212;-65
2022/01/06 11:07:39;;;;;;;64.77;16.17;;;;;;;13.90;58.49;98974.66;5114347;27;20251;-65
2022/01/06 11:10:14;;;;;;;41.67;15.13;;;;;;;13.98;58.74;98968.97;5114357;28;20187;-65
2022/01/06 11:12:41;;;;;;;30.83;13.50;;;;;;;13.87;57.81;98947.59;5114521;28;20221;-65
2022/01/06 11:15:09;;;;;;;34.63;14.40;;;;;;;14.00;57.93;98964.19;5114374;28;20186;-66
2022/01/06 11:17:36;;;;;;;51.87;15.70;;;;;;;13.99;58.09;98964.44;5114445;27;20204;-66
2022/01/06 11:20:04;;;;;;;22.37;14.77;;;;;;;13.95;58.25;98958.75;5110797;28;20192;-66
2022/01/06 11:22:31;;;;;;;27.37;13.73;;;;;;;14.03;57.72;98963.75;5093980;28;20284;-66
2022/01/06 11:25:02;;;;;;;18.73;14.33;;;;;;;13.99;57.53;98957.25;5100820;28;20191;-65
2022/01/06 11:27:34;;;;;;;18.03;14.43;;;;;;;13.89;58.25;98956.97;5114048;28;20183;-65
2022/01/06 11:30:10;;;;;;;23.17;14.67;;;;;;;13.96;57.71;98957.69;5094811;28;20323;-65
2022/01/06 11:32:37;;;;;;;20.23;14.10;;;;;;;13.98;57.72;98950.28;5098845;28;20218;-65